Etusivu
METAR-TAF:

METAR-TAF

Lentoasemat :

Zadar, Kroatia

Leveyspiiri: 44-06N, Pituuspiiri: 015-21E, korkeus merenpinnasta: 82 m

Tämänhetkinen sää

Tämä raportti tehtiin 35 minuuttia sitten, kello 22.30 UTC
Tuuli 2 kn etelästä
Lämpötila 24°C
Kosteus 69%
Ilmanpaine 1010 hPa
Näkyvyys 10 km tai enemmän
ei pilviä alle 1500 m:ssä eikä cumulonimbus-pilviä

METAR: LDZD 132230Z 17002KT CAVOK 24/18 Q1010 NOSIG

Aika: 01:05 (23:05 UTC)

Sääennuste

Tämä raportti tehtiin 5 tuntia ja 40 minuuttia sitten, kello 17.25 UTC
Ennuste voimassa 13. päivästä klo 18 UTC - 14. päivään klo 18 UTC
Tuuli 2 kn eri suunnista
Näkyvyys 10 km tai enemmän
ei pilviä alle 1500 m:ssä eikä cumulonimbus-pilviä
Tulossa
14. päivästä klo 09 UTC - 14. päivään klo 11 UTC
Tuuli 10 kn luoteesta
Tulossa
14. päivästä klo 16 UTC - 14. päivään klo 18 UTC
Tuuli 6 kn pohjoisen/luoteesta

TAF: LDZD 131725Z 1318/1418 VRB02KT CAVOK TX35/1413Z TN21/1403Z BECMG 1409/1411 31010KT BECMG 1416/1418 33006KT

Säähavainnot ja -ennusteet yli 4000 lentoasemalta (METAR- ja TAF-raportit).

Käytössä olevat sääasemat on merkitty karttaan keltaisilla ja punaisilla pisteillä.

Aseta hiiri pisteen päälle nähdäksesi sääaseman nimen.

Klikkaa sitten nähdäksesi säähavainnot ja -ennusteet.

Kartan vaihtaminen: klikkaa mustalla rastilla varustettuja vihreitä pisteitä, niin voit zoomata sisään; viivalla varustettua vihreää pistettä, niin voit zoomata ulos tai vihreitä nuolia, niin pääset viereisille kartoille.


METAR-TAF: